This is the latest recevied weather packets stored in our database for station/object VK3PBR-10. If no packets are shown the sender has not sent any weather packets the latest 10 day(s).
| Time | Temp. | Humidity | Pressure | Rain* | Wind** | Luminosity | Snow |
|---|---|---|---|---|---|---|---|
| 1787709651 | 30.56° C | 58% | 1028.7 hPa | - | - | - | - |
| 1787708751 | 23.33° C | 60% | 1028.8 hPa | - | - | - | - |
| 1787707851 | 17.78° C | 61% | 1029.2 hPa | - | - | - | - |
| 1787706951 | 21.67° C | 54% | 1029.1 hPa | - | - | - | - |
| 1787706051 | 24.44° C | 47% | 1029.2 hPa | - | - | - | - |
| 1787705149 | 18.33° C | 61% | 1029.3 hPa | - | - | - | - |
| 1787704249 | 18.89° C | 56% | 1029.1 hPa | - | - | - | - |
| 1787703348 | 19.44° C | 54% | 1029.1 hPa | - | - | - | - |
| 1787702447 | 21.67° C | 58% | 1028.9 hPa | - | - | - | - |
| 1787701546 | 20.56° C | 55% | 1028.8 hPa | - | - | - | - |
| 1787700646 | 27.22° C | 58% | 1028.7 hPa | - | - | - | - |
| 1787699746 | 24.44° C | 65% | 1028.7 hPa | - | - | - | - |
| 1787698846 | 17.22° C | 73% | 1028.6 hPa | - | - | - | - |
| 1787697946 | 17.22° C | 71% | 1028.5 hPa | - | - | - | - |
| 1787697046 | 20.56° C | 67% | 1028.2 hPa | - | - | - | - |
| 1787696146 | 17.22° C | 71% | 1028.1 hPa | - | - | - | - |
| 1787695245 | 13.33° C | 76% | 1028 hPa | - | - | - | - |
| 1787694345 | 13.33° C | 76% | 1027.8 hPa | - | - | - | - |
| 1787693445 | 13.89° C | 76% | 1027.6 hPa | - | - | - | - |
| 1787692545 | 12.78° C | 78% | 1027.5 hPa | - | - | - | - |
| 1787691644 | 11.11° C | 77% | 1027.4 hPa | - | - | - | - |
| 1787690744 | 10.56° C | 78% | 1027.1 hPa | - | - | - | - |
| 1787689844 | 10.56° C | 77% | 1026.9 hPa | - | - | - | - |
| 1787688944 | 11.11° C | 76% | 1026.8 hPa | - | - | - | - |
| 1787688044 | 11.67° C | 76% | 1026.5 hPa | - | - | - | - |
* Rain since midnight (hover to see other rain measurements)
** Current wind speed in m/s (hover to see current wind gust speed)